Time;durP1;ratioP1;P1;durP2;ratioP2;P2;SDS_P1;SDS_P2;PMS_P1;PMS_P2;Temp;Humidity;BMP_temperature;BMP_pressure;BME280_temperature;BME280_humidity;BME280_pressure;Samples;Min_cycle;Max_cycle;Signal;HPM_P1;HPM_P2
2021/01/25 00:02:24;;;;;;;17.23;11.90;;;;;;;3.68;79.83;99736.73;1714103;83;25652;-56
2021/01/25 00:04:53;;;;;;;17.62;12.65;;;;;;;3.67;80.11;99720.91;1732727;82;26734;-56
2021/01/25 00:07:22;;;;;;;18.25;12.93;;;;;;;3.67;80.38;99718.25;1739717;81;26095;-56
2021/01/25 00:09:51;;;;;;;19.17;13.25;;;;;;;3.65;80.45;99713.02;1721883;82;25665;-56
2021/01/25 00:12:19;;;;;;;18.90;12.58;;;;;;;3.65;81.00;99709.53;1731417;82;25728;-56
2021/01/25 00:14:47;;;;;;;20.52;14.28;;;;;;;3.63;81.43;99704.80;1728101;82;26148;-56
2021/01/25 00:17:15;;;;;;;20.05;14.03;;;;;;;3.58;81.10;99706.48;1732822;82;26791;-56
2021/01/25 00:19:44;;;;;;;25.65;13.70;;;;;;;3.53;81.21;99692.21;1719564;82;25675;-57
2021/01/25 00:22:12;;;;;;;26.15;15.13;;;;;;;3.48;81.37;99693.52;1734137;82;25961;-56
2021/01/25 00:24:40;;;;;;;30.17;16.32;;;;;;;3.46;81.19;99680.36;1728218;81;25745;-57
2021/01/25 00:27:09;;;;;;;38.05;16.82;;;;;;;3.42;81.37;99681.55;1673533;84;26595;-56
2021/01/25 00:29:37;;;;;;;36.38;16.23;;;;;;;3.35;81.54;99661.71;1698007;83;27541;-56
2021/01/25 00:32:14;;;;;;;36.63;15.65;;;;;;;3.28;82.24;99670.63;1702442;83;26143;-56
2021/01/25 00:34:44;;;;;;;28.40;14.43;;;;;;;3.12;82.24;99669.63;1701474;83;25715;-56
2021/01/25 00:37:12;;;;;;;24.75;14.87;;;;;;;3.04;81.88;99676.01;1700604;83;25851;-56
2021/01/25 00:39:41;;;;;;;26.50;15.23;;;;;;;2.98;82.02;99665.35;1709645;82;25844;-56
2021/01/25 00:42:09;;;;;;;34.65;14.58;;;;;;;2.93;82.02;99659.05;1732522;81;27517;-56
2021/01/25 00:44:38;;;;;;;26.85;14.43;;;;;;;2.94;82.10;99659.89;1733080;82;25615;-56
2021/01/25 00:47:06;;;;;;;24.70;13.95;;;;;;;2.96;83.24;99655.31;1734639;82;25756;-56
2021/01/25 00:49:35;;;;;;;27.95;15.60;;;;;;;2.94;83.13;99638.17;1734372;82;25720;-56
2021/01/25 00:52:05;;;;;;;24.02;14.93;;;;;;;2.89;82.16;99630.17;1762783;80;25644;-56
2021/01/25 00:54:33;;;;;;;22.07;13.98;;;;;;;2.88;82.01;99619.18;1755401;80;27535;-56
2021/01/25 00:57:03;;;;;;;22.95;12.90;;;;;;;2.87;82.05;99622.80;1769432;80;25726;-56
2021/01/25 00:59:31;;;;;;;23.07;13.28;;;;;;;2.87;82.04;99631.59;1771774;80;25794;-56
2021/01/25 01:01:59;;;;;;;23.00;13.55;;;;;;;2.93;82.20;99638.27;1771711;80;25823;-56
2021/01/25 01:04:28;;;;;;;20.23;14.10;;;;;;;2.92;82.31;99625.94;1734522;82;25702;-56
2021/01/25 01:06:58;;;;;;;19.62;12.55;;;;;;;2.91;82.13;99621.13;1720859;82;28505;-56
2021/01/25 01:09:26;;;;;;;19.02;12.10;;;;;;;2.94;82.15;99610.28;1720933;83;25646;-56
2021/01/25 01:12:02;;;;;;;24.52;12.93;;;;;;;2.96;82.11;99612.31;1720865;83;25661;-56
2021/01/25 01:14:30;;;;;;;18.17;12.33;;;;;;;2.97;82.61;99605.20;1721067;83;25938;-56
2021/01/25 01:16:58;;;;;;;19.75;13.18;;;;;;;2.97;82.56;99609.19;1721051;83;25744;-56
2021/01/25 01:19:26;;;;;;;23.67;13.85;;;;;;;2.97;82.42;99611.34;1720983;83;27731;-56
2021/01/25 01:21:55;;;;;;;20.65;13.05;;;;;;;2.96;82.23;99614.13;1706240;83;25721;-56
2021/01/25 01:24:23;;;;;;;27.82;16.97;;;;;;;2.95;82.05;99616.42;1697881;84;25716;-56
2021/01/25 01:26:51;;;;;;;21.40;14.50;;;;;;;2.98;82.25;99618.86;1707565;83;26344;-57
2021/01/25 01:29:19;;;;;;;20.05;12.18;;;;;;;3.02;82.15;99611.50;1707479;83;25839;-56
2021/01/25 01:31:47;;;;;;;24.05;12.78;;;;;;;3.05;82.92;99590.02;1707511;83;26813;-56
2021/01/25 01:34:15;;;;;;;23.30;12.00;;;;;;;3.06;83.07;99599.20;1705827;84;26089;-55
2021/01/25 01:36:43;;;;;;;17.73;11.30;;;;;;;3.06;82.70;99585.91;1708531;83;25712;-56
2021/01/25 01:39:11;;;;;;;23.90;12.85;;;;;;;3.07;82.28;99572.13;1709270;83;25908;-56
2021/01/25 01:41:40;;;;;;;18.45;11.12;;;;;;;3.08;82.22;99585.31;1714613;81;25496;-56
2021/01/25 01:44:10;;;;;;;19.75;11.48;;;;;;;3.08;81.92;99581.80;1714197;82;27517;-56
2021/01/25 01:46:43;;;;;;;21.35;11.63;;;;;;;3.07;81.61;99584.08;1702749;83;25805;-56
2021/01/25 01:49:12;;;;;;;21.85;12.00;;;;;;;3.05;81.52;99566.94;1703595;83;25904;-56
2021/01/25 01:51:41;;;;;;;17.77;11.18;;;;;;;3.08;81.65;99562.73;1714990;82;26037;-56
2021/01/25 01:54:10;;;;;;;19.42;11.08;;;;;;;3.10;81.29;99552.80;1704109;83;26112;-56
2021/01/25 01:56:39;;;;;;;21.25;11.78;;;;;;;3.09;81.11;99552.93;1715337;82;27613;-56
2021/01/25 01:59:06;;;;;;;17.37;10.75;;;;;;;3.07;81.13;99549.54;1713955;83;25804;-57
2021/01/25 02:01:35;;;;;;;15.78;10.20;;;;;;;3.06;80.98;99558.47;1711406;83;25788;-56
2021/01/25 02:04:05;;;;;;;18.62;11.20;;;;;;;3.05;80.69;99536.38;1715621;82;26284;-56
2021/01/25 02:06:34;;;;;;;17.95;11.40;;;;;;;3.03;80.92;99538.30;1721072;82;25633;-56
2021/01/25 02:09:06;;;;;;;20.90;10.93;;;;;;;3.02;80.92;99529.97;1721666;83;27774;-56
2021/01/25 02:11:36;;;;;;;18.85;11.25;;;;;;;3.03;80.95;99532.16;1725672;82;26156;-56
2021/01/25 02:14:06;;;;;;;25.72;11.78;;;;;;;3.00;80.66;99533.25;1724453;82;25478;-56
2021/01/25 02:16:43;;;;;;;19.50;11.22;;;;;;;2.97;80.40;99528.99;1703970;83;25865;-56
2021/01/25 02:19:24;;;;;;;26.02;11.63;;;;;;;2.95;80.65;99532.73;1733888;81;25664;-56
2021/01/25 02:22:35;;;;;;;20.00;10.68;;;;;;;2.92;80.49;99534.29;1742034;80;28461;-56
2021/01/25 02:25:17;;;;;;;17.07;11.20;;;;;;;2.85;81.19;99525.10;1722854;82;25659;-57
2021/01/25 02:27:46;;;;;;;23.55;11.70;;;;;;;2.77;80.75;99519.91;1697414;84;25697;-57
2021/01/25 02:30:16;;;;;;;22.48;11.18;;;;;;;2.76;81.45;99500.11;1713223;82;25850;-57
2021/01/25 02:32:47;;;;;;;20.52;12.35;;;;;;;2.72;81.14;99503.48;1711020;82;26144;-56
2021/01/25 02:35:18;;;;;;;18.15;11.55;;;;;;;2.73;81.36;99505.64;1730398;81;28483;-57
2021/01/25 02:37:52;;;;;;;23.83;11.50;;;;;;;2.72;81.39;99498.64;1729138;81;26177;-57
2021/01/25 02:40:23;;;;;;;20.90;11.60;;;;;;;2.74;81.47;99504.69;1738728;82;25508;-57
2021/01/25 02:42:55;;;;;;;23.10;12.40;;;;;;;2.78;81.61;99489.73;1731551;81;25930;-56
2021/01/25 02:45:24;;;;;;;23.18;12.35;;;;;;;2.77;81.54;99495.17;1725232;82;26094;-57
2021/01/25 02:47:54;;;;;;;19.67;12.25;;;;;;;2.75;81.76;99487.30;1729054;82;27519;-56
2021/01/25 02:50:23;;;;;;;22.95;11.68;;;;;;;2.72;81.81;99502.16;1724479;82;25648;-57
2021/01/25 02:52:51;;;;;;;18.67;10.50;;;;;;;2.69;81.82;99497.07;1729080;82;25689;-57
2021/01/25 02:55:19;;;;;;;21.40;12.15;;;;;;;2.68;82.17;99491.39;1728048;82;25713;-57
2021/01/25 02:57:48;;;;;;;19.23;11.50;;;;;;;2.63;82.36;99483.77;1727253;82;26449;-57
2021/01/25 03:00:19;;;;;;;19.60;10.18;;;;;;;2.60;82.39;99485.82;1727622;81;27609;-55
2021/01/25 03:02:53;;;;;;;24.15;12.05;;;;;;;2.60;82.40;99480.02;1732280;82;25854;-57
2021/01/25 03:05:22;;;;;;;21.05;11.38;;;;;;;2.60;82.81;99478.69;1727665;82;25717;-57
2021/01/25 03:07:52;;;;;;;17.55;10.88;;;;;;;2.61;82.69;99460.97;1729001;82;25852;-57
2021/01/25 03:10:20;;;;;;;18.25;9.90;;;;;;;2.64;82.76;99455.44;1730228;82;25457;-57
2021/01/25 03:12:49;;;;;;;24.02;11.48;;;;;;;2.66;82.79;99439.73;1728067;82;27539;-57
2021/01/25 03:15:21;;;;;;;23.38;11.20;;;;;;;2.65;82.49;99416.80;1765491;80;25679;-56
2021/01/25 03:17:49;;;;;;;18.20;11.10;;;;;;;2.65;82.56;99423.91;1764383;80;25718;-57
2021/01/25 03:20:18;;;;;;;18.15;11.00;;;;;;;2.64;82.44;99412.45;1771199;80;25840;-57
2021/01/25 03:23:05;;;;;;;20.27;10.55;;;;;;;2.65;82.40;99417.27;1746316;79;25466;-57
2021/01/25 03:25:33;;;;;;;21.85;10.98;;;;;;;2.64;82.36;99399.67;1753400;79;28206;-57
2021/01/25 03:28:01;;;;;;;20.48;10.70;;;;;;;2.64;82.35;99407.14;1755525;80;25692;-56
2021/01/25 03:30:32;;;;;;;22.95;10.98;;;;;;;2.64;82.57;99398.34;1773552;80;25640;-57
2021/01/25 03:33:00;;;;;;;20.10;11.45;;;;;;;2.66;82.66;99396.39;1761108;80;26673;-56
2021/01/25 03:35:28;;;;;;;21.10;10.68;;;;;;;2.68;83.01;99394.47;1771672;81;25704;-56
2021/01/25 03:37:56;;;;;;;26.75;10.88;;;;;;;2.71;83.29;99396.03;1771669;80;27688;-57
2021/01/25 03:40:24;;;;;;;24.37;11.12;;;;;;;2.74;83.31;99397.96;1779668;80;25691;-57
2021/01/25 03:42:53;;;;;;;21.12;11.25;;;;;;;2.77;83.18;99393.75;1792963;80;25647;-56
2021/01/25 03:45:21;;;;;;;21.60;11.15;;;;;;;2.79;83.14;99397.14;1792880;80;25859;-57
2021/01/25 03:47:49;;;;;;;19.15;11.48;;;;;;;2.79;83.13;99410.88;1792890;80;25753;-57
2021/01/25 03:50:17;;;;;;;23.00;10.95;;;;;;;2.77;82.94;99415.49;1793016;80;28387;-57
2021/01/25 03:52:45;;;;;;;22.37;10.08;;;;;;;2.73;82.96;99410.91;1792860;80;26308;-57
2021/01/25 03:55:13;;;;;;;16.93;10.28;;;;;;;2.76;83.12;99414.63;1789285;79;25433;-57
2021/01/25 03:57:41;;;;;;;22.40;11.55;;;;;;;2.79;83.46;99409.09;1793715;79;26783;-56
2021/01/25 04:00:12;;;;;;;20.48;11.05;;;;;;;2.85;83.52;99409.09;1796540;79;26854;-57
2021/01/25 04:02:43;;;;;;;17.65;11.80;;;;;;;2.88;83.44;99412.81;1781884;79;27994;-57
2021/01/25 04:05:13;;;;;;;18.92;10.38;;;;;;;2.90;83.16;99408.23;1723798;82;25670;-57
2021/01/25 04:07:41;;;;;;;19.00;10.45;;;;;;;2.96;83.10;99399.78;1704122;83;25694;-57
2021/01/25 04:10:12;;;;;;;17.90;11.12;;;;;;;3.03;83.19;99388.19;1676789;85;26711;-57
2021/01/25 04:12:40;;;;;;;17.37;10.30;;;;;;;3.04;82.96;99390.38;1700078;84;25602;-55
2021/01/25 04:15:10;;;;;;;18.25;11.00;;;;;;;3.07;82.69;99397.63;1685015;84;27621;-54
2021/01/25 04:17:39;;;;;;;26.73;11.97;;;;;;;3.10;82.38;99395.20;1712857;82;26167;-54
2021/01/25 04:20:09;;;;;;;19.62;11.90;;;;;;;3.11;82.21;99384.44;1720477;83;25521;-55
2021/01/25 04:22:37;;;;;;;19.80;9.65;;;;;;;3.08;81.78;99366.56;1719696;82;25922;-55
2021/01/25 04:25:07;;;;;;;17.57;9.65;;;;;;;3.00;81.77;99359.70;1711486;82;25600;-56
2021/01/25 04:27:36;;;;;;;19.05;10.82;;;;;;;2.97;81.95;99372.25;1756612;80;27594;-57
2021/01/25 04:30:11;;;;;;;22.22;9.63;;;;;;;2.92;82.31;99369.59;1754539;81;25701;-57
2021/01/25 04:32:39;;;;;;;18.37;9.03;;;;;;;2.89;82.45;99368.53;1749856;81;25935;-57
2021/01/25 04:35:11;;;;;;;25.12;9.28;;;;;;;2.91;82.48;99369.26;1741040;81;26873;-57
2021/01/25 04:37:41;;;;;;;21.73;10.43;;;;;;;2.93;82.74;99370.81;1745020;81;26415;-57
2021/01/25 04:40:12;;;;;;;20.05;11.08;;;;;;;2.95;82.76;99357.41;1743577;81;27530;-57
2021/01/25 04:42:40;;;;;;;21.07;10.45;;;;;;;2.96;82.65;99369.23;1729809;82;25680;-56
2021/01/25 04:45:12;;;;;;;19.32;9.05;;;;;;;2.94;82.72;99357.04;1728705;82;25431;-57
2021/01/25 04:47:45;;;;;;;19.37;10.63;;;;;;;2.93;82.98;99344.25;1744087;81;25845;-57
2021/01/25 04:50:18;;;;;;;22.77;9.38;;;;;;;2.93;83.08;99333.62;1745666;80;25668;-57
2021/01/25 04:52:48;;;;;;;19.23;11.03;;;;;;;2.95;83.31;99344.98;1727683;81;27539;-56
2021/01/25 04:55:17;;;;;;;18.60;10.50;;;;;;;2.97;83.49;99324.92;1770067;79;26111;-56
2021/01/25 04:57:45;;;;;;;19.10;11.20;;;;;;;2.96;83.48;99329.87;1768695;79;25611;-56
2021/01/25 05:00:18;;;;;;;17.55;9.80;;;;;;;2.93;83.34;99320.81;1768308;80;25835;-57
2021/01/25 05:02:47;;;;;;;18.67;10.38;;;;;;;2.90;83.50;99315.77;1732724;82;25983;-56
2021/01/25 05:05:16;;;;;;;18.92;9.90;;;;;;;2.87;83.50;99320.81;1766857;80;27559;-56
2021/01/25 05:07:44;;;;;;;21.30;10.18;;;;;;;2.85;83.61;99318.79;1737416;82;25751;-56
2021/01/25 05:10:13;;;;;;;22.80;11.18;;;;;;;2.84;83.88;99304.28;1717506;82;25844;-56
2021/01/25 05:12:49;;;;;;;20.35;10.72;;;;;;;2.82;84.27;99297.28;1759386;79;25864;-56
2021/01/25 05:15:33;;;;;;;22.82;9.88;;;;;;;2.81;84.33;99294.29;1764662;79;25435;-56
2021/01/25 05:18:04;;;;;;;20.97;11.73;;;;;;;2.80;84.40;99277.99;1762280;81;27962;-56
2021/01/25 05:20:34;;;;;;;19.60;10.88;;;;;;;2.80;84.50;99273.14;1763325;80;25699;-56
2021/01/25 05:23:14;;;;;;;19.80;10.45;;;;;;;2.81;84.63;99276.16;1767556;80;25766;-56
2021/01/25 05:25:43;;;;;;;14.83;9.58;;;;;;;2.84;84.89;99280.38;1770520;80;25862;-56
2021/01/25 05:28:17;;;;;;;19.45;10.25;;;;;;;2.88;84.69;99291.96;1760112;81;26154;-56
2021/01/25 05:30:46;;;;;;;21.33;11.70;;;;;;;2.93;84.67;99279.17;1755188;80;28517;-56
2021/01/25 05:33:27;;;;;;;27.98;11.20;;;;;;;2.93;84.45;99279.64;1757356;80;26147;-56
2021/01/25 05:35:57;;;;;;;16.87;11.05;;;;;;;2.94;84.36;99273.36;1768484;80;25718;-56
2021/01/25 05:38:25;;;;;;;20.70;10.23;;;;;;;2.94;84.71;99281.33;1763148;80;25859;-56
2021/01/25 05:40:57;;;;;;;18.35;10.30;;;;;;;2.92;84.67;99265.52;1762135;79;26110;-56
2021/01/25 05:43:34;;;;;;;17.92;10.15;;;;;;;2.93;84.76;99276.52;1767010;80;27323;-57
2021/01/25 05:46:09;;;;;;;18.10;10.05;;;;;;;2.94;85.01;99266.72;1763164;80;25635;-56
2021/01/25 05:48:57;;;;;;;15.28;9.15;;;;;;;2.95;85.03;99250.67;1833071;78;25404;-54
2021/01/25 05:51:32;;;;;;;14.78;9.43;;;;;;;2.95;85.03;99250.67;1805395;79;25710;-57
2021/01/25 05:54:04;;;;;;;14.68;8.95;;;;;;;3.07;85.43;99241.33;1805678;79;27510;-57
2021/01/25 05:56:32;;;;;;;17.32;9.25;;;;;;;3.17;85.00;99251.56;1805450;79;25700;-57
2021/01/25 05:59:00;;;;;;;18.90;9.45;;;;;;;3.28;84.81;99250.66;1805628;79;25650;-57
2021/01/25 06:01:30;;;;;;;16.70;10.15;;;;;;;3.41;85.06;99245.17;1805357;79;25804;-57
2021/01/25 06:03:58;;;;;;;20.37;10.65;;;;;;;3.51;84.52;99254.07;1805591;79;25769;-57
2021/01/25 06:06:34;;;;;;;15.35;8.80;;;;;;;3.55;83.76;99238.23;1782334;79;28488;-57
2021/01/25 06:09:14;;;;;;;16.10;10.28;;;;;;;3.56;83.71;99232.41;1773541;80;26103;-57
2021/01/25 06:11:46;;;;;;;19.17;9.70;;;;;;;3.63;83.85;99242.06;1748852;79;25760;-56
2021/01/25 06:14:37;;;;;;;20.90;10.53;;;;;;;3.65;83.46;99230.31;1795787;79;25672;-56
2021/01/25 06:17:09;;;;;;;16.55;10.20;;;;;;;3.65;83.31;99217.02;1793376;78;25704;-56
2021/01/25 06:19:39;;;;;;;22.13;11.55;;;;;;;3.70;83.60;99204.66;1803872;79;28525;-56
2021/01/25 06:22:10;;;;;;;26.95;12.18;;;;;;;3.72;83.13;99195.56;1727322;82;25736;-56
2021/01/25 06:24:41;;;;;;;22.37;12.07;;;;;;;3.72;83.48;99197.39;1738268;80;25656;-56
2021/01/25 06:27:13;;;;;;;21.75;11.75;;;;;;;3.78;83.64;99188.88;1735796;81;25799;-56
2021/01/25 06:29:44;;;;;;;19.30;10.50;;;;;;;3.83;83.56;99185.83;1712921;82;25698;-56
2021/01/25 06:32:15;;;;;;;18.30;10.80;;;;;;;3.90;83.53;99181.19;1711126;82;27541;-55
2021/01/25 06:34:45;;;;;;;18.20;11.38;;;;;;;3.95;83.63;99182.59;1721499;83;26094;-56
2021/01/25 06:37:14;;;;;;;16.85;10.15;;;;;;;3.99;83.49;99180.86;1715547;82;25729;-55
2021/01/25 06:39:46;;;;;;;20.12;9.25;;;;;;;4.04;83.28;99190.64;1723821;82;26646;-55
2021/01/25 06:42:17;;;;;;;24.87;11.28;;;;;;;4.10;83.28;99182.61;1749680;82;26154;-55
2021/01/25 06:44:47;;;;;;;17.55;8.95;;;;;;;4.11;83.19;99188.77;1721076;83;27529;-55
2021/01/25 06:47:16;;;;;;;20.77;9.80;;;;;;;4.14;82.96;99182.68;1716932;82;26011;-54
2021/01/25 06:49:46;;;;;;;22.82;11.12;;;;;;;4.15;82.98;99195.02;1769237;81;25741;-55
2021/01/25 06:52:15;;;;;;;19.60;10.53;;;;;;;4.19;82.86;99185.80;1769229;81;25491;-55
2021/01/25 06:54:45;;;;;;;24.23;9.98;;;;;;;4.19;82.80;99192.45;1769440;81;25506;-55
2021/01/25 06:57:25;;;;;;;22.07;9.18;;;;;;;4.23;82.90;99200.51;1768997;81;27532;-57
2021/01/25 06:59:56;;;;;;;18.67;9.03;;;;;;;4.27;83.09;99197.59;1768797;81;25659;-55
2021/01/25 07:02:24;;;;;;;17.15;8.75;;;;;;;4.32;83.31;99193.55;1768671;81;25725;-55
2021/01/25 07:04:59;;;;;;;18.32;9.85;;;;;;;4.40;83.14;99179.55;1767093;81;25754;-55
2021/01/25 07:07:29;;;;;;;;;;;;;;;4.50;83.10;99175.59;1749873;82;26202;-55
2021/01/25 07:09:58;;;;;;;16.65;9.18;;;;;;;4.56;82.77;99179.03;1757310;79;26756;-55
2021/01/25 07:12:28;;;;;;;21.37;9.28;;;;;;;4.61;82.91;99179.95;1768588;79;25698;-56
2021/01/25 07:14:56;;;;;;;34.13;10.82;;;;;;;4.68;82.72;99153.11;1729605;82;25730;-55
2021/01/25 07:17:26;;;;;;;19.87;10.53;;;;;;;4.72;82.11;99161.67;1777442;79;25796;-55
2021/01/25 07:19:55;;;;;;;27.65;11.43;;;;;;;4.72;82.18;99165.66;1784347;79;26261;-56
2021/01/25 07:22:24;;;;;;;24.20;9.83;;;;;;;4.73;82.11;99164.21;1784561;79;27630;-56
2021/01/25 07:24:53;;;;;;;26.45;10.75;;;;;;;4.77;82.00;99176.26;1782729;79;25621;-56
2021/01/25 07:27:22;;;;;;;21.27;9.40;;;;;;;4.79;82.03;99170.81;1786836;79;25690;-55
2021/01/25 07:29:51;;;;;;;18.60;8.35;;;;;;;4.81;82.07;99161.70;1771851;79;25671;-56
2021/01/25 07:32:24;;;;;;;16.62;8.80;;;;;;;4.85;82.02;99159.59;1800026;79;25675;-56
2021/01/25 07:34:57;;;;;;;15.93;8.35;;;;;;;4.94;82.31;99169.89;1800369;79;28250;-55
2021/01/25 07:37:25;;;;;;;19.70;6.85;;;;;;;5.07;82.53;99166.47;1797521;79;25658;-55
2021/01/25 07:39:53;;;;;;;16.55;7.55;;;;;;;5.22;82.35;99162.89;1794932;79;25681;-55
2021/01/25 07:42:21;;;;;;;15.95;6.75;;;;;;;5.32;82.08;99152.20;1768852;81;25723;-55
2021/01/25 07:44:50;;;;;;;14.73;6.30;;;;;;;5.44;82.23;99155.08;1768781;81;25735;-55
2021/01/25 07:47:22;;;;;;;17.45;7.53;;;;;;;5.57;82.05;99149.91;1768508;79;27775;-55
2021/01/25 07:49:52;;;;;;;12.73;6.47;;;;;;;5.68;82.07;99136.92;1768348;81;26314;-55
2021/01/25 07:52:20;;;;;;;17.15;6.55;;;;;;;5.78;81.80;99143.07;1768179;81;25484;-55
2021/01/25 07:54:48;;;;;;;12.88;7.08;;;;;;;5.87;81.55;99130.16;1768240;81;25655;-56
2021/01/25 07:57:23;;;;;;;14.63;7.03;;;;;;;5.93;81.25;99129.59;1768021;81;25689;-54
2021/01/25 07:59:53;;;;;;;23.10;9.20;;;;;;;6.00;81.20;99129.88;1767837;81;28228;-55
2021/01/25 08:02:26;;;;;;;17.10;8.25;;;;;;;6.05;80.91;99124.93;1775290;79;25641;-56
2021/01/25 08:04:56;;;;;;;18.82;8.20;;;;;;;6.11;80.80;99131.00;1786474;79;25694;-55
2021/01/25 08:07:25;;;;;;;18.27;7.50;;;;;;;6.18;80.55;99122.42;1778917;79;26275;-56
2021/01/25 08:09:55;;;;;;;19.10;8.60;;;;;;;6.22;80.52;99142.48;1784484;79;25655;-56
2021/01/25 08:12:26;;;;;;;16.55;8.05;;;;;;;6.30;80.64;99141.75;1771638;79;27508;-56
2021/01/25 08:15:01;;;;;;;16.90;8.70;;;;;;;6.39;80.74;99120.83;1768058;81;25695;-56
2021/01/25 08:17:33;;;;;;;18.05;9.45;;;;;;;6.49;80.28;99120.75;1768829;79;25683;-56
2021/01/25 08:20:10;;;;;;;23.18;8.98;;;;;;;6.52;80.34;99118.61;1769304;79;26184;-55
2021/01/25 08:22:59;;;;;;;15.25;7.33;;;;;;;6.55;80.35;99110.79;1791236;79;25441;-56
2021/01/25 08:25:29;;;;;;;17.32;7.72;;;;;;;6.60;79.66;99114.34;1751785;80;28621;-56
2021/01/25 08:28:20;;;;;;;19.75;8.00;;;;;;;6.62;79.63;99121.72;1796423;79;25705;-56
2021/01/25 08:30:50;;;;;;;18.73;7.30;;;;;;;6.61;79.82;99128.05;1786032;79;25740;-56
2021/01/25 08:33:34;;;;;;;12.50;7.05;;;;;;;6.64;79.95;99121.91;1782959;79;26184;-56
2021/01/25 08:36:07;;;;;;;16.42;6.62;;;;;;;6.67;79.83;99120.27;1784229;79;26345;-57
2021/01/25 08:38:42;;;;;;;17.02;6.47;;;;;;;6.70;79.98;99117.80;1784351;79;27523;-56
2021/01/25 08:41:28;;;;;;;11.78;5.50;;;;;;;6.73;79.65;99118.83;1780440;79;25686;-56
2021/01/25 08:44:01;;;;;;;9.40;5.30;;;;;;;6.75;79.89;99112.84;1768201;81;25687;-56
2021/01/25 08:46:33;;;;;;;12.80;5.75;;;;;;;6.81;79.75;99114.91;1778544;79;25656;-56
2021/01/25 08:49:25;;;;;;;20.60;7.55;;;;;;;6.81;79.90;99120.25;1770064;79;25653;-56
2021/01/25 08:52:03;;;;;;;17.40;6.87;;;;;;;6.88;79.99;99119.97;1761100;81;28609;-55
2021/01/25 08:54:38;;;;;;;22.67;6.78;;;;;;;6.99;80.34;99114.05;1762350;81;25745;-56
2021/01/25 08:57:24;;;;;;;16.82;7.60;;;;;;;7.10;79.43;99105.80;1762366;81;25475;-56
2021/01/25 08:59:52;;;;;;;16.10;6.42;;;;;;;7.08;79.68;99098.42;1777451;80;25863;-56
2021/01/25 09:02:23;;;;;;;15.78;6.78;;;;;;;7.17;79.87;99101.50;1780213;79;25688;-57
2021/01/25 09:04:53;;;;;;;13.50;5.95;;;;;;;7.27;79.92;99093.88;1780895;78;27557;-56
2021/01/25 09:07:24;;;;;;;11.90;8.00;;;;;;;7.35;79.60;99074.70;1725571;83;26079;-57
2021/01/25 09:09:52;;;;;;;23.67;8.78;;;;;;;7.36;79.20;99071.03;1720749;82;25704;-56
2021/01/25 09:12:21;;;;;;;13.22;7.40;;;;;;;7.40;79.00;99067.55;1716395;81;25676;-56
2021/01/25 09:14:49;;;;;;;22.40;7.50;;;;;;;7.42;79.35;99046.00;1727617;82;26549;-57
2021/01/25 09:17:18;;;;;;;17.82;8.40;;;;;;;7.46;79.28;99050.88;1771760;80;27504;-56
2021/01/25 09:19:46;;;;;;;17.77;8.08;;;;;;;7.51;79.37;99051.23;1722510;82;25758;-57
2021/01/25 09:22:15;;;;;;;18.60;7.78;;;;;;;7.60;79.72;99045.92;1718644;82;25696;-57
2021/01/25 09:24:44;;;;;;;15.98;5.85;;;;;;;7.65;79.55;99036.92;1721035;82;25765;-57
2021/01/25 09:27:12;;;;;;;19.65;6.35;;;;;;;7.71;79.33;99036.79;1705479;84;25572;-57
2021/01/25 09:29:40;;;;;;;13.15;5.08;;;;;;;7.78;79.37;99013.73;1705521;84;27462;-57
2021/01/25 09:32:09;;;;;;;13.32;5.58;;;;;;;7.86;79.34;99007.06;1705503;84;25699;-56
2021/01/25 09:34:37;;;;;;;10.82;4.72;;;;;;;7.93;79.34;99001.39;1708395;82;25528;-57
2021/01/25 09:37:07;;;;;;;17.65;6.00;;;;;;;7.99;79.29;98998.05;1728397;82;25732;-56
2021/01/25 09:39:37;;;;;;;17.25;5.87;;;;;;;7.99;78.50;99014.12;1780215;79;25749;-57
2021/01/25 09:42:07;;;;;;;15.28;6.80;;;;;;;8.01;78.63;99002.41;1773029;79;27528;-57
2021/01/25 09:44:37;;;;;;;20.90;6.25;;;;;;;8.03;78.74;99016.48;1775045;79;25637;-56
2021/01/25 09:47:05;;;;;;;25.62;8.85;;;;;;;7.98;78.32;99006.26;1717268;82;25653;-56
2021/01/25 09:49:34;;;;;;;23.55;7.22;;;;;;;7.84;78.24;99004.52;1719318;82;26210;-56
2021/01/25 09:52:03;;;;;;;26.48;7.87;;;;;;;7.79;78.39;99003.36;1728071;82;25654;-55
2021/01/25 09:54:31;;;;;;;19.23;7.03;;;;;;;7.70;78.25;99010.51;1716811;83;27540;-56
2021/01/25 09:56:59;;;;;;;18.40;6.90;;;;;;;7.66;78.71;99005.98;1783956;80;25634;-56
2021/01/25 09:59:30;;;;;;;18.37;6.40;;;;;;;7.61;78.75;99012.81;1784066;80;25706;-56
2021/01/25 10:01:59;;;;;;;14.33;6.92;;;;;;;7.58;79.17;99003.27;1776453;80;26916;-56
2021/01/25 10:04:27;;;;;;;22.95;7.78;;;;;;;7.57;79.28;99001.59;1783091;80;25682;-55
2021/01/25 10:06:56;;;;;;;17.40;7.67;;;;;;;7.55;79.45;98998.23;1783533;79;27419;-56
2021/01/25 10:09:24;;;;;;;18.32;7.97;;;;;;;7.49;79.46;98994.35;1746122;82;25669;-56
2021/01/25 10:11:55;;;;;;;25.43;7.47;;;;;;;7.44;79.66;98979.29;1783246;80;25577;-56
2021/01/25 10:14:22;;;;;;;19.37;7.37;;;;;;;7.37;79.70;98991.64;1782327;80;25987;-55
2021/01/25 10:16:50;;;;;;;20.45;9.58;;;;;;;7.39;80.23;98986.12;1750651;81;26259;-56
2021/01/25 10:19:19;;;;;;;16.07;6.50;;;;;;;7.36;80.31;98993.97;1811310;79;28644;-55
2021/01/25 10:21:48;;;;;;;27.40;7.50;;;;;;;7.38;80.17;98984.44;1811202;79;26607;-57
2021/01/25 10:24:17;;;;;;;15.03;7.62;;;;;;;7.45;80.52;98978.30;1811353;79;25713;-57
2021/01/25 10:26:46;;;;;;;20.15;7.85;;;;;;;7.54;80.63;98971.64;1818685;78;25662;-55
2021/01/25 10:29:14;;;;;;;17.20;7.78;;;;;;;7.59;80.45;98964.81;1819548;78;26313;-57
2021/01/25 10:31:42;;;;;;;29.18;7.75;;;;;;;7.66;80.47;98961.81;1819467;78;28904;-57
2021/01/25 10:34:10;;;;;;;19.15;8.08;;;;;;;7.76;80.51;98958.17;1819506;78;26100;-57
2021/01/25 10:36:38;;;;;;;25.37;12.85;;;;;;;7.86;80.42;98952.18;1786302;78;25656;-57
2021/01/25 10:39:07;;;;;;;25.37;7.37;;;;;;;7.93;80.22;98950.52;1784205;80;25692;-57
2021/01/25 10:41:35;;;;;;;25.70;8.38;;;;;;;7.96;79.95;98943.51;1782483;79;25694;-57
2021/01/25 10:44:05;;;;;;;20.65;7.75;;;;;;;8.04;80.54;98944.52;1745072;82;27544;-57
2021/01/25 10:46:33;;;;;;;24.10;8.75;;;;;;;8.13;80.38;98929.62;1785275;79;25749;-55
2021/01/25 10:49:02;;;;;;;23.83;8.83;;;;;;;8.21;80.41;98927.46;1750336;81;25681;-55
2021/01/25 10:51:30;;;;;;;22.98;9.43;;;;;;;8.30;80.32;98930.97;1788079;79;25695;-56
2021/01/25 10:53:59;;;;;;;21.37;9.25;;;;;;;8.37;80.14;98917.75;1701084;82;25626;-55
2021/01/25 10:56:27;;;;;;;20.80;7.03;;;;;;;8.43;79.87;98926.45;1766398;79;27519;-55
2021/01/25 10:58:55;;;;;;;18.62;7.10;;;;;;;8.50;79.92;98903.38;1752232;81;25673;-55
2021/01/25 11:01:23;;;;;;;21.42;7.33;;;;;;;8.57;79.82;98912.42;1752145;81;25588;-56
2021/01/25 11:03:51;;;;;;;30.43;9.53;;;;;;;8.72;80.04;98907.21;1752355;81;25718;-56
2021/01/25 11:06:21;;;;;;;32.90;9.60;;;;;;;8.87;79.41;98899.80;1777631;79;25830;-55
2021/01/25 11:08:49;;;;;;;23.05;9.15;;;;;;;8.93;79.27;98893.73;1768285;81;27544;-55
2021/01/25 11:11:18;;;;;;;32.78;9.58;;;;;;;8.99;78.87;98902.95;1767924;81;25711;-56
2021/01/25 11:13:46;;;;;;;19.57;7.55;;;;;;;9.02;78.57;98894.05;1768272;81;25648;-56
2021/01/25 11:16:14;;;;;;;23.30;7.65;;;;;;;9.08;78.67;98892.52;1767987;81;25678;-56
2021/01/25 11:18:43;;;;;;;18.27;7.95;;;;;;;9.11;78.83;98906.95;1768316;81;25658;-55
2021/01/25 11:21:11;;;;;;;18.27;6.28;;;;;;;9.16;78.99;98906.42;1757212;81;27597;-55
2021/01/25 11:23:39;;;;;;;26.30;7.15;;;;;;;9.18;78.79;98911.94;1751911;81;26632;-55
2021/01/25 11:26:07;;;;;;;29.12;6.72;;;;;;;9.21;78.98;98918.80;1752169;81;25468;-56
2021/01/25 11:28:35;;;;;;;22.20;7.05;;;;;;;9.27;78.98;98915.94;1752163;81;27077;-56
2021/01/25 11:31:07;;;;;;;28.25;7.28;;;;;;;9.31;78.67;98915.41;1752181;81;25752;-56
2021/01/25 11:33:35;;;;;;;20.68;7.15;;;;;;;9.32;78.25;98919.78;1751982;81;27480;-56
2021/01/25 11:36:05;;;;;;;30.30;8.70;;;;;;;9.29;78.10;98916.61;1763160;81;25910;-56
2021/01/25 11:38:35;;;;;;;22.85;6.80;;;;;;;9.26;78.24;98913.77;1768168;81;25698;-56
2021/01/25 11:41:04;;;;;;;32.90;8.85;;;;;;;9.24;78.15;98901.84;1780304;79;26432;-55
2021/01/25 11:43:33;;;;;;;28.45;9.48;;;;;;;9.22;78.22;98896.33;1774871;79;25618;-56
2021/01/25 11:46:01;;;;;;;28.98;9.28;;;;;;;9.20;78.08;98887.13;1768147;81;26657;-56